sensor_id;sensor_type;location;lat;lon;timestamp;pressure;altitude;pressure_sealevel;temperature;humidity
41102;BME280;26845;50.190;19.178;2023-04-21T00:01:47;98837.38;;;9.07;68.61
41102;BME280;26845;50.190;19.178;2023-04-21T00:04:21;98836.94;;;9.01;68.58
41102;BME280;26845;50.190;19.178;2023-04-21T00:06:55;98836.39;;;8.95;68.68
41102;BME280;26845;50.190;19.178;2023-04-21T00:09:29;98833.30;;;8.88;69.06
41102;BME280;26845;50.190;19.178;2023-04-21T00:12:02;98834.00;;;8.87;69.39
41102;BME280;26845;50.190;19.178;2023-04-21T00:14:36;98830.92;;;8.87;69.65
41102;BME280;26845;50.190;19.178;2023-04-21T00:17:10;98835.80;;;8.85;69.58
41102;BME280;26845;50.190;19.178;2023-04-21T00:19:43;98826.38;;;8.81;69.43
41102;BME280;26845;50.190;19.178;2023-04-21T00:22:17;98825.41;;;8.76;69.63
41102;BME280;26845;50.190;19.178;2023-04-21T00:24:50;98822.05;;;8.73;69.63
41102;BME280;26845;50.190;19.178;2023-04-21T00:27:24;98826.19;;;8.70;69.73
41102;BME280;26845;50.190;19.178;2023-04-21T00:29:58;98821.09;;;8.67;69.84
41102;BME280;26845;50.190;19.178;2023-04-21T00:32:31;98823.00;;;8.63;69.94
41102;BME280;26845;50.190;19.178;2023-04-21T00:35:12;98820.12;;;8.60;70.06
41102;BME280;26845;50.190;19.178;2023-04-21T00:37:46;98821.36;;;8.58;70.10
41102;BME280;26845;50.190;19.178;2023-04-21T00:40:29;98822.78;;;8.55;70.15
41102;BME280;26845;50.190;19.178;2023-04-21T00:43:06;98825.30;;;8.51;69.86
41102;BME280;26845;50.190;19.178;2023-04-21T00:45:40;98831.91;;;8.44;69.84
41102;BME280;26845;50.190;19.178;2023-04-21T00:48:13;98826.44;;;8.38;69.72
41102;BME280;26845;50.190;19.178;2023-04-21T00:50:47;98825.61;;;8.30;69.98
41102;BME280;26845;50.190;19.178;2023-04-21T00:53:20;98827.13;;;8.24;70.42
41102;BME280;26845;50.190;19.178;2023-04-21T00:55:54;98825.00;;;8.19;70.50
41102;BME280;26845;50.190;19.178;2023-04-21T00:58:28;98825.88;;;8.12;70.60
41102;BME280;26845;50.190;19.178;2023-04-21T01:01:01;98825.96;;;8.07;70.52
41102;BME280;26845;50.190;19.178;2023-04-21T01:03:35;98828.08;;;8.06;70.77
41102;BME280;26845;50.190;19.178;2023-04-21T01:06:08;98835.63;;;8.03;70.99
41102;BME280;26845;50.190;19.178;2023-04-21T01:08:42;98833.00;;;8.03;71.22
41102;BME280;26845;50.190;19.178;2023-04-21T01:11:25;98834.84;;;7.98;71.02
41102;BME280;26845;50.190;19.178;2023-04-21T01:13:58;98833.18;;;7.90;70.92
41102;BME280;26845;50.190;19.178;2023-04-21T01:16:32;98830.75;;;7.81;71.19
41102;BME280;26845;50.190;19.178;2023-04-21T01:19:05;98832.92;;;7.73;71.14
41102;BME280;26845;50.190;19.178;2023-04-21T01:21:39;98833.27;;;7.64;70.80
41102;BME280;26845;50.190;19.178;2023-04-21T01:24:13;98834.02;;;7.39;71.01
41102;BME280;26845;50.190;19.178;2023-04-21T01:26:56;98824.23;;;7.30;71.38
41102;BME280;26845;50.190;19.178;2023-04-21T01:29:33;98821.12;;;7.31;71.39
41102;BME280;26845;50.190;19.178;2023-04-21T01:32:07;98825.65;;;7.22;71.55
41102;BME280;26845;50.190;19.178;2023-04-21T01:34:40;98827.71;;;7.26;72.14
41102;BME280;26845;50.190;19.178;2023-04-21T01:37:15;98826.60;;;7.26;72.37
41102;BME280;26845;50.190;19.178;2023-04-21T01:39:48;98823.98;;;7.29;72.25
41102;BME280;26845;50.190;19.178;2023-04-21T01:42:21;98827.41;;;7.32;72.60
41102;BME280;26845;50.190;19.178;2023-04-21T01:44:54;98827.00;;;7.35;72.66
41102;BME280;26845;50.190;19.178;2023-04-21T01:47:28;98826.47;;;7.37;72.84
41102;BME280;26845;50.190;19.178;2023-04-21T01:50:01;98825.58;;;7.36;72.67
41102;BME280;26845;50.190;19.178;2023-04-21T01:52:35;98826.75;;;7.36;72.66
41102;BME280;26845;50.190;19.178;2023-04-21T01:55:09;98827.00;;;7.34;72.85
41102;BME280;26845;50.190;19.178;2023-04-21T01:57:42;98826.94;;;7.35;73.10
41102;BME280;26845;50.190;19.178;2023-04-21T02:02:53;98822.91;;;7.43;73.06
41102;BME280;26845;50.190;19.178;2023-04-21T02:05:27;98826.77;;;7.49;73.10
41102;BME280;26845;50.190;19.178;2023-04-21T02:08:01;98826.91;;;7.50;73.16
41102;BME280;26845;50.190;19.178;2023-04-21T02:10:34;98822.30;;;7.53;73.33
41102;BME280;26845;50.190;19.178;2023-04-21T02:13:08;98825.08;;;7.55;73.47
41102;BME280;26845;50.190;19.178;2023-04-21T02:15:41;98820.36;;;7.56;73.26
41102;BME280;26845;50.190;19.178;2023-04-21T02:18:15;98817.52;;;7.57;73.48
41102;BME280;26845;50.190;19.178;2023-04-21T02:20:49;98824.24;;;7.59;73.56
41102;BME280;26845;50.190;19.178;2023-04-21T02:23:22;98821.69;;;7.57;73.38
41102;BME280;26845;50.190;19.178;2023-04-21T02:25:56;98820.89;;;7.54;73.56
41102;BME280;26845;50.190;19.178;2023-04-21T02:28:30;98822.83;;;7.50;73.60
41102;BME280;26845;50.190;19.178;2023-04-21T02:31:03;98820.77;;;7.51;73.56
41102;BME280;26845;50.190;19.178;2023-04-21T02:33:37;98827.17;;;7.51;73.79
41102;BME280;26845;50.190;19.178;2023-04-21T02:36:11;98832.94;;;7.46;73.48
41102;BME280;26845;50.190;19.178;2023-04-21T02:38:44;98832.95;;;7.45;73.81
41102;BME280;26845;50.190;19.178;2023-04-21T02:41:18;98830.64;;;7.44;73.76
41102;BME280;26845;50.190;19.178;2023-04-21T02:43:51;98828.83;;;7.39;73.44
41102;BME280;26845;50.190;19.178;2023-04-21T02:46:25;98830.91;;;7.37;73.92
41102;BME280;26845;50.190;19.178;2023-04-21T02:48:59;98830.92;;;7.35;73.79
41102;BME280;26845;50.190;19.178;2023-04-21T02:51:32;98827.39;;;7.30;73.79
41102;BME280;26845;50.190;19.178;2023-04-21T02:56:39;98826.02;;;7.19;74.01
41102;BME280;26845;50.190;19.178;2023-04-21T02:59:13;98827.36;;;7.18;73.98
41102;BME280;26845;50.190;19.178;2023-04-21T03:01:47;98825.35;;;7.20;74.13
41102;BME280;26845;50.190;19.178;2023-04-21T03:04:20;98823.54;;;7.23;74.34
41102;BME280;26845;50.190;19.178;2023-04-21T03:06:54;98821.02;;;7.26;74.58
41102;BME280;26845;50.190;19.178;2023-04-21T03:09:27;98820.96;;;7.31;74.60
41102;BME280;26845;50.190;19.178;2023-04-21T03:12:10;98823.85;;;7.34;74.46
41102;BME280;26845;50.190;19.178;2023-04-21T03:14:44;98822.98;;;7.37;74.78
41102;BME280;26845;50.190;19.178;2023-04-21T03:17:17;98819.80;;;7.40;74.69
41102;BME280;26845;50.190;19.178;2023-04-21T03:19:51;98818.64;;;7.40;74.76
41102;BME280;26845;50.190;19.178;2023-04-21T03:22:24;98818.00;;;7.39;74.58
41102;BME280;26845;50.190;19.178;2023-04-21T03:24:58;98817.92;;;7.31;74.38
41102;BME280;26845;50.190;19.178;2023-04-21T03:27:32;98813.69;;;7.29;74.58
41102;BME280;26845;50.190;19.178;2023-04-21T03:30:05;98813.63;;;7.24;74.19
41102;BME280;26845;50.190;19.178;2023-04-21T03:32:39;98809.96;;;7.16;74.27
41102;BME280;26845;50.190;19.178;2023-04-21T03:35:13;98815.73;;;7.08;74.38
41102;BME280;26845;50.190;19.178;2023-04-21T03:40:20;98824.05;;;6.92;74.41
41102;BME280;26845;50.190;19.178;2023-04-21T03:43:02;98824.80;;;6.89;74.66
41102;BME280;26845;50.190;19.178;2023-04-21T03:45:36;98828.03;;;6.86;74.75
41102;BME280;26845;50.190;19.178;2023-04-21T03:48:10;98831.58;;;6.85;74.57
41102;BME280;26845;50.190;19.178;2023-04-21T03:50:43;98837.06;;;6.79;74.74
41102;BME280;26845;50.190;19.178;2023-04-21T03:53:17;98834.56;;;6.75;74.67
41102;BME280;26845;50.190;19.178;2023-04-21T03:55:51;98842.73;;;6.76;75.08
41102;BME280;26845;50.190;19.178;2023-04-21T03:58:24;98841.25;;;6.75;74.80
41102;BME280;26845;50.190;19.178;2023-04-21T04:00:58;98843.17;;;6.74;74.96
41102;BME280;26845;50.190;19.178;2023-04-21T04:03:32;98843.17;;;6.75;74.96
41102;BME280;26845;50.190;19.178;2023-04-21T04:11:12;98848.60;;;6.90;75.54
41102;BME280;26845;50.190;19.178;2023-04-21T04:13:46;98851.63;;;6.92;75.53
41102;BME280;26845;50.190;19.178;2023-04-21T04:16:19;98855.11;;;6.93;75.77
41102;BME280;26845;50.190;19.178;2023-04-21T04:18:53;98853.27;;;6.95;75.72
41102;BME280;26845;50.190;19.178;2023-04-21T04:21:37;98854.38;;;6.92;75.54
41102;BME280;26845;50.190;19.178;2023-04-21T04:24:10;98857.08;;;6.87;75.18
41102;BME280;26845;50.190;19.178;2023-04-21T04:26:44;98862.42;;;6.84;75.22
41102;BME280;26845;50.190;19.178;2023-04-21T04:29:17;98867.56;;;6.83;75.33
41102;BME280;26845;50.190;19.178;2023-04-21T04:31:51;98871.11;;;6.82;75.23
41102;BME280;26845;50.190;19.178;2023-04-21T04:34:25;98867.16;;;6.85;75.56
41102;BME280;26845;50.190;19.178;2023-04-21T04:37:00;98870.20;;;6.84;75.21
41102;BME280;26845;50.190;19.178;2023-04-21T04:39:32;98869.73;;;6.81;75.52
41102;BME280;26845;50.190;19.178;2023-04-21T04:42:06;98870.44;;;6.78;75.56
41102;BME280;26845;50.190;19.178;2023-04-21T04:44:39;98873.07;;;6.79;75.88
41102;BME280;26845;50.190;19.178;2023-04-21T04:47:13;98868.71;;;6.79;75.98
41102;BME280;26845;50.190;19.178;2023-04-21T04:49:46;98868.55;;;6.80;75.97
41102;BME280;26845;50.190;19.178;2023-04-21T04:52:20;98873.27;;;6.84;76.00
41102;BME280;26845;50.190;19.178;2023-04-21T04:54:54;98874.59;;;6.84;76.06
41102;BME280;26845;50.190;19.178;2023-04-21T04:57:27;98876.02;;;6.84;76.33
41102;BME280;26845;50.190;19.178;2023-04-21T05:00:01;98871.03;;;6.85;76.29
41102;BME280;26845;50.190;19.178;2023-04-21T05:02:34;98877.77;;;6.91;76.76
41102;BME280;26845;50.190;19.178;2023-04-21T05:05:08;98876.55;;;6.96;76.50
41102;BME280;26845;50.190;19.178;2023-04-21T05:07:42;98874.42;;;7.00;76.63
41102;BME280;26845;50.190;19.178;2023-04-21T05:10:15;98872.86;;;7.02;76.57
41102;BME280;26845;50.190;19.178;2023-04-21T05:12:49;98873.91;;;6.95;76.84
41102;BME280;26845;50.190;19.178;2023-04-21T05:15:23;98876.57;;;6.95;76.79
41102;BME280;26845;50.190;19.178;2023-04-21T05:17:56;98874.09;;;7.01;77.43
41102;BME280;26845;50.190;19.178;2023-04-21T05:25:50;98871.34;;;7.50;77.98
41102;BME280;26845;50.190;19.178;2023-04-21T05:28:30;98867.71;;;7.65;78.20
41102;BME280;26845;50.190;19.178;2023-04-21T05:39:48;98864.42;;;8.30;78.13
41102;BME280;26845;50.190;19.178;2023-04-21T06:47:28;98848.73;;;13.34;73.92
41102;BME280;26845;50.190;19.178;2023-04-21T06:52:48;98846.80;;;13.70;73.27
41102;BME280;26845;50.190;19.178;2023-04-21T06:55:28;98842.24;;;13.92;72.96
41102;BME280;26845;50.190;19.178;2023-04-21T06:58:08;98839.95;;;14.17;72.84
41102;BME280;26845;50.190;19.178;2023-04-21T07:11:28;98838.91;;;15.46;70.68
41102;BME280;26845;50.190;19.178;2023-04-21T07:14:08;98839.65;;;15.75;69.95
41102;BME280;26845;50.190;19.178;2023-04-21T07:16:48;98835.88;;;16.00;69.45
41102;BME280;26845;50.190;19.178;2023-04-21T07:19:28;98836.34;;;16.20;69.06
41102;BME280;26845;50.190;19.178;2023-04-21T07:27:31;98833.63;;;16.96;67.36
41102;BME280;26845;50.190;19.178;2023-04-21T07:30:08;98837.27;;;17.12;67.43
41102;BME280;26845;50.190;19.178;2023-04-21T07:32:48;98832.98;;;17.38;67.06
41102;BME280;26845;50.190;19.178;2023-04-21T07:35:28;98831.35;;;17.65;66.69
41102;BME280;26845;50.190;19.178;2023-04-21T07:38:08;98830.73;;;17.91;66.22
41102;BME280;26845;50.190;19.178;2023-04-21T07:40:51;98828.70;;;18.18;65.78
41102;BME280;26845;50.190;19.178;2023-04-21T07:43:28;98827.16;;;18.39;64.76
41102;BME280;26845;50.190;19.178;2023-04-21T07:46:08;98823.73;;;18.63;64.30
41102;BME280;26845;50.190;19.178;2023-04-21T07:48:48;98817.73;;;18.87;63.45
41102;BME280;26845;50.190;19.178;2023-04-21T07:51:28;98821.99;;;18.91;60.97
41102;BME280;26845;50.190;19.178;2023-04-21T07:54:08;98820.73;;;18.80;60.61
41102;BME280;26845;50.190;19.178;2023-04-21T07:56:48;98819.39;;;18.81;60.59
41102;BME280;26845;50.190;19.178;2023-04-21T07:59:28;98820.00;;;19.05;60.88
41102;BME280;26845;50.190;19.178;2023-04-21T08:02:08;98815.40;;;19.21;58.76
41102;BME280;26845;50.190;19.178;2023-04-21T08:04:48;98812.45;;;19.26;58.81
41102;BME280;26845;50.190;19.178;2023-04-21T08:07:28;98819.36;;;19.30;57.44
41102;BME280;26845;50.190;19.178;2023-04-21T08:10:08;98817.44;;;19.40;57.10
41102;BME280;26845;50.190;19.178;2023-04-21T08:12:49;98818.54;;;19.53;57.57
41102;BME280;26845;50.190;19.178;2023-04-21T08:15:28;98809.05;;;19.76;57.68
41102;BME280;26845;50.190;19.178;2023-04-21T08:18:08;98810.54;;;19.98;57.78
41102;BME280;26845;50.190;19.178;2023-04-21T08:21:07;98817.73;;;20.28;57.01
41102;BME280;26845;50.190;19.178;2023-04-21T08:24:06;98808.66;;;20.59;56.52
41102;BME280;26845;50.190;19.178;2023-04-21T08:27:05;98811.45;;;20.75;55.92
41102;BME280;26845;50.190;19.178;2023-04-21T08:30:05;98808.73;;;20.85;54.95
41102;BME280;26845;50.190;19.178;2023-04-21T08:32:44;98804.91;;;20.75;53.21
41102;BME280;26845;50.190;19.178;2023-04-21T08:35:24;98801.95;;;20.65;52.62
41102;BME280;26845;50.190;19.178;2023-04-21T08:38:04;98801.35;;;20.61;52.61
41102;BME280;26845;50.190;19.178;2023-04-21T08:40:44;98801.76;;;20.45;52.04
41102;BME280;26845;50.190;19.178;2023-04-21T08:43:24;98808.59;;;20.26;51.59
41102;BME280;26845;50.190;19.178;2023-04-21T08:46:32;98804.66;;;20.37;51.45
41102;BME280;26845;50.190;19.178;2023-04-21T08:49:12;98800.40;;;20.62;51.92
41102;BME280;26845;50.190;19.178;2023-04-21T08:51:52;98799.83;;;20.82;50.99
41102;BME280;26845;50.190;19.178;2023-04-21T08:54:32;98796.69;;;20.76;49.68
41102;BME280;26845;50.190;19.178;2023-04-21T08:57:12;98792.38;;;20.88;50.17
41102;BME280;26845;50.190;19.178;2023-04-21T08:59:58;98793.29;;;21.11;48.69
41102;BME280;26845;50.190;19.178;2023-04-21T09:02:57;98788.27;;;21.19;46.90
41102;BME280;26845;50.190;19.178;2023-04-21T09:05:42;98787.05;;;21.33;47.72
41102;BME280;26845;50.190;19.178;2023-04-21T09:08:33;98787.56;;;21.28;47.83
41102;BME280;26845;50.190;19.178;2023-04-21T09:11:13;98792.73;;;20.97;47.06
41102;BME280;26845;50.190;19.178;2023-04-21T09:13:55;98786.73;;;20.81;47.21
41102;BME280;26845;50.190;19.178;2023-04-21T09:16:33;98779.98;;;20.98;46.02
41102;BME280;26845;50.190;19.178;2023-04-21T09:19:14;98777.07;;;21.20;46.68
41102;BME280;26845;50.190;19.178;2023-04-21T09:21:54;98771.29;;;21.39;46.15
41102;BME280;26845;50.190;19.178;2023-04-21T09:24:34;98766.45;;;21.69;44.29
41102;BME280;26845;50.190;19.178;2023-04-21T09:27:37;98774.27;;;21.87;44.78
41102;BME280;26845;50.190;19.178;2023-04-21T09:30:18;98768.49;;;22.19;45.67
41102;BME280;26845;50.190;19.178;2023-04-21T09:33:13;98766.95;;;22.63;42.78
41102;BME280;26845;50.190;19.178;2023-04-21T09:35:47;98770.01;;;22.27;42.78
41102;BME280;26845;50.190;19.178;2023-04-21T09:38:27;98771.98;;;21.75;43.82
41102;BME280;26845;50.190;19.178;2023-04-21T09:41:07;98775.05;;;21.45;43.41
41102;BME280;26845;50.190;19.178;2023-04-21T09:44:09;98768.27;;;20.97;42.81
41102;BME280;26845;50.190;19.178;2023-04-21T09:47:15;98775.79;;;20.56;43.65
41102;BME280;26845;50.190;19.178;2023-04-21T09:50:23;98775.77;;;20.21;41.86
41102;BME280;26845;50.190;19.178;2023-04-21T09:53:28;98771.60;;;19.83;41.99
41102;BME280;26845;50.190;19.178;2023-04-21T09:56:28;98766.15;;;20.00;43.42
41102;BME280;26845;50.190;19.178;2023-04-21T09:59:01;98763.08;;;20.47;42.37
41102;BME280;26845;50.190;19.178;2023-04-21T10:02:07;98753.68;;;20.92;42.44
41102;BME280;26845;50.190;19.178;2023-04-21T10:05:12;98752.61;;;21.37;40.44
41102;BME280;26845;50.190;19.178;2023-04-21T10:07:46;98757.60;;;21.36;38.73
41102;BME280;26845;50.190;19.178;2023-04-21T10:10:42;98756.83;;;21.14;40.02
41102;BME280;26845;50.190;19.178;2023-04-21T10:13:16;98756.57;;;21.29;41.02
41102;BME280;26845;50.190;19.178;2023-04-21T10:15:59;98757.46;;;21.30;40.91
41102;BME280;26845;50.190;19.178;2023-04-21T10:18:44;98754.06;;;21.30;40.68
41102;BME280;26845;50.190;19.178;2023-04-21T10:21:50;98749.64;;;21.58;39.65
41102;BME280;26845;50.190;19.178;2023-04-21T10:24:56;98745.77;;;21.79;39.96
41102;BME280;26845;50.190;19.178;2023-04-21T10:27:40;98742.40;;;22.08;39.50
41102;BME280;26845;50.190;19.178;2023-04-21T10:30:46;98741.75;;;22.19;38.41
41102;BME280;26845;50.190;19.178;2023-04-21T10:37:12;98737.33;;;22.62;38.16
41102;BME280;26845;50.190;19.178;2023-04-21T10:40:32;98732.18;;;22.77;38.14
41102;BME280;26845;50.190;19.178;2023-04-21T10:43:42;98736.65;;;23.05;36.66
41102;BME280;26845;50.190;19.178;2023-04-21T10:46:48;98737.14;;;22.80;37.14
41102;BME280;26845;50.190;19.178;2023-04-21T10:49:56;98734.27;;;22.44;37.80
41102;BME280;26845;50.190;19.178;2023-04-21T10:53:10;98730.77;;;22.14;37.40
41102;BME280;26845;50.190;19.178;2023-04-21T10:56:14;98727.76;;;21.70;36.75
41102;BME280;26845;50.190;19.178;2023-04-21T10:59:20;98733.45;;;21.09;36.35
41102;BME280;26845;50.190;19.178;2023-04-21T11:02:28;98732.86;;;20.91;37.34
41102;BME280;26845;50.190;19.178;2023-04-21T11:05:35;98728.80;;;20.97;37.23
41102;BME280;26845;50.190;19.178;2023-04-21T11:08:55;98727.59;;;20.73;36.28
41102;BME280;26845;50.190;19.178;2023-04-21T11:11:57;98732.61;;;20.42;36.55
41102;BME280;26845;50.190;19.178;2023-04-21T11:15:03;98727.23;;;20.25;37.01
41102;BME280;26845;50.190;19.178;2023-04-21T11:18:08;98719.27;;;20.54;37.23
41102;BME280;26845;50.190;19.178;2023-04-21T11:21:15;98718.33;;;21.15;37.58
41102;BME280;26845;50.190;19.178;2023-04-21T11:24:20;98714.02;;;21.71;37.64
41102;BME280;26845;50.190;19.178;2023-04-21T11:27:26;98707.90;;;22.30;37.18
41102;BME280;26845;50.190;19.178;2023-04-21T11:30:32;98705.07;;;22.78;36.60
41102;BME280;26845;50.190;19.178;2023-04-21T11:33:37;98703.28;;;22.74;35.50
41102;BME280;26845;50.190;19.178;2023-04-21T11:36:43;98706.73;;;22.25;33.99
41102;BME280;26845;50.190;19.178;2023-04-21T11:39:54;98708.74;;;21.68;34.23
41102;BME280;26845;50.190;19.178;2023-04-21T11:42:55;98710.81;;;21.40;35.23
41102;BME280;26845;50.190;19.178;2023-04-21T11:46:15;98704.35;;;21.24;35.49
41102;BME280;26845;50.190;19.178;2023-04-21T11:48:44;98703.59;;;21.59;35.78
41102;BME280;26845;50.190;19.178;2023-04-21T11:51:51;98704.29;;;22.02;36.16
41102;BME280;26845;50.190;19.178;2023-04-21T11:55:10;98702.78;;;22.40;35.55
41102;BME280;26845;50.190;19.178;2023-04-21T11:58:02;98701.39;;;22.21;35.19
41102;BME280;26845;50.190;19.178;2023-04-21T12:01:08;98697.38;;;21.84;34.66
41102;BME280;26845;50.190;19.178;2023-04-21T12:04:15;98688.33;;;22.00;34.64
41102;BME280;26845;50.190;19.178;2023-04-21T12:07:21;98689.46;;;22.28;34.98
41102;BME280;26845;50.190;19.178;2023-04-21T12:10:25;98688.20;;;22.56;34.45
41102;BME280;26845;50.190;19.178;2023-04-21T12:13:23;98678.98;;;22.99;34.40
41102;BME280;26845;50.190;19.178;2023-04-21T12:16:02;98682.32;;;23.28;34.36
41102;BME280;26845;50.190;19.178;2023-04-21T12:18:35;98679.23;;;23.57;33.95
41102;BME280;26845;50.190;19.178;2023-04-21T12:21:09;98674.74;;;23.87;33.73
41102;BME280;26845;50.190;19.178;2023-04-21T12:23:42;98671.79;;;23.97;32.06
41102;BME280;26845;50.190;19.178;2023-04-21T12:26:16;98672.11;;;23.45;33.12
41102;BME280;26845;50.190;19.178;2023-04-21T12:28:50;98673.31;;;22.96;33.30
41102;BME280;26845;50.190;19.178;2023-04-21T12:31:23;98670.38;;;22.90;34.16
41102;BME280;26845;50.190;19.178;2023-04-21T12:33:57;98661.86;;;22.85;33.49
41102;BME280;26845;50.190;19.178;2023-04-21T12:36:30;98662.17;;;22.80;32.97
41102;BME280;26845;50.190;19.178;2023-04-21T12:39:04;98657.63;;;22.67;33.69
41102;BME280;26845;50.190;19.178;2023-04-21T12:41:38;98655.91;;;23.04;33.82
41102;BME280;26845;50.190;19.178;2023-04-21T12:44:11;98653.39;;;23.40;33.81
41102;BME280;26845;50.190;19.178;2023-04-21T12:47:08;98652.06;;;23.70;32.45
41102;BME280;26845;50.190;19.178;2023-04-21T12:49:42;98652.66;;;23.36;31.13
41102;BME280;26845;50.190;19.178;2023-04-21T12:52:16;98655.45;;;22.68;32.37
41102;BME280;26845;50.190;19.178;2023-04-21T12:54:49;98656.58;;;22.37;32.86
41102;BME280;26845;50.190;19.178;2023-04-21T12:57:23;98662.86;;;22.13;32.85
41102;BME280;26845;50.190;19.178;2023-04-21T12:59:56;98652.79;;;21.89;33.05
41102;BME280;26845;50.190;19.178;2023-04-21T13:02:30;98648.61;;;21.75;33.17
41102;BME280;26845;50.190;19.178;2023-04-21T13:05:04;98649.85;;;21.81;33.10
41102;BME280;26845;50.190;19.178;2023-04-21T13:07:37;98645.35;;;22.06;33.23
41102;BME280;26845;50.190;19.178;2023-04-21T13:10:11;98641.17;;;22.26;32.98
41102;BME280;26845;50.190;19.178;2023-04-21T13:12:45;98640.77;;;22.50;33.30
41102;BME280;26845;50.190;19.178;2023-04-21T13:15:18;98639.59;;;22.66;31.93
41102;BME280;26845;50.190;19.178;2023-04-21T13:17:52;98635.21;;;22.70;33.11
41102;BME280;26845;50.190;19.178;2023-04-21T13:20:26;98638.45;;;22.73;31.63
41102;BME280;26845;50.190;19.178;2023-04-21T13:22:59;98638.25;;;22.52;31.70
41102;BME280;26845;50.190;19.178;2023-04-21T13:25:33;98635.67;;;22.57;32.29
41102;BME280;26845;50.190;19.178;2023-04-21T13:28:06;98634.83;;;22.81;32.23
41102;BME280;26845;50.190;19.178;2023-04-21T13:30:40;98627.02;;;22.98;32.22
41102;BME280;26845;50.190;19.178;2023-04-21T13:33:24;98629.67;;;23.23;32.17
41102;BME280;26845;50.190;19.178;2023-04-21T13:35:57;98628.85;;;23.34;32.45
41102;BME280;26845;50.190;19.178;2023-04-21T13:38:31;98628.31;;;23.69;32.03
41102;BME280;26845;50.190;19.178;2023-04-21T13:41:05;98619.10;;;23.94;32.10
41102;BME280;26845;50.190;19.178;2023-04-21T13:43:38;98620.56;;;24.24;31.90
41102;BME280;26845;50.190;19.178;2023-04-21T13:46:44;98608.40;;;24.59;31.31
41102;BME280;26845;50.190;19.178;2023-04-21T13:49:50;98609.25;;;24.33;29.16
41102;BME280;26845;50.190;19.178;2023-04-21T13:52:56;98614.17;;;23.41;29.63
41102;BME280;26845;50.190;19.178;2023-04-21T13:56:02;98612.09;;;22.43;29.82
41102;BME280;26845;50.190;19.178;2023-04-21T13:59:07;98604.96;;;21.64;29.67
41102;BME280;26845;50.190;19.178;2023-04-21T14:02:13;98608.16;;;21.21;30.42
41102;BME280;26845;50.190;19.178;2023-04-21T14:05:19;98600.77;;;21.03;30.74
41102;BME280;26845;50.190;19.178;2023-04-21T14:08:25;98592.59;;;21.32;31.19
41102;BME280;26845;50.190;19.178;2023-04-21T14:11:27;98586.96;;;21.80;31.05
41102;BME280;26845;50.190;19.178;2023-04-21T14:14:00;98589.45;;;22.18;30.91
41102;BME280;26845;50.190;19.178;2023-04-21T14:17:06;98592.20;;;22.47;30.54
41102;BME280;26845;50.190;19.178;2023-04-21T14:20:12;98595.06;;;22.60;30.73
41102;BME280;26845;50.190;19.178;2023-04-21T14:23:18;98592.53;;;22.47;30.32
41102;BME280;26845;50.190;19.178;2023-04-21T14:26:21;98585.06;;;22.10;30.16
41102;BME280;26845;50.190;19.178;2023-04-21T14:28:55;98585.90;;;21.77;30.11
41102;BME280;26845;50.190;19.178;2023-04-21T14:31:29;98583.44;;;21.54;30.83
41102;BME280;26845;50.190;19.178;2023-04-21T14:34:02;98579.10;;;21.59;31.03
41102;BME280;26845;50.190;19.178;2023-04-21T14:37:08;98574.76;;;21.82;30.80
41102;BME280;26845;50.190;19.178;2023-04-21T14:40:14;98569.73;;;22.15;30.83
41102;BME280;26845;50.190;19.178;2023-04-21T14:43:20;98568.20;;;22.21;30.52
41102;BME280;26845;50.190;19.178;2023-04-21T14:46:26;98566.52;;;22.26;30.68
41102;BME280;26845;50.190;19.178;2023-04-21T14:49:31;98560.83;;;22.54;30.89
41102;BME280;26845;50.190;19.178;2023-04-21T14:52:37;98560.92;;;22.78;30.42
41102;BME280;26845;50.190;19.178;2023-04-21T14:55:43;98560.20;;;22.88;30.73
41102;BME280;26845;50.190;19.178;2023-04-21T14:58:49;98562.64;;;22.95;30.80
41102;BME280;26845;50.190;19.178;2023-04-21T15:01:55;98558.69;;;22.97;30.75
41102;BME280;26845;50.190;19.178;2023-04-21T15:05:01;98558.66;;;22.78;30.20
41102;BME280;26845;50.190;19.178;2023-04-21T15:08:06;98552.88;;;22.31;30.15
41102;BME280;26845;50.190;19.178;2023-04-21T15:11:12;98545.09;;;21.99;30.28
41102;BME280;26845;50.190;19.178;2023-04-21T15:14:18;98546.92;;;21.95;30.55
41102;BME280;26845;50.190;19.178;2023-04-21T15:17:24;98547.16;;;22.16;30.56
41102;BME280;26845;50.190;19.178;2023-04-21T15:20:03;98552.33;;;22.37;29.78
41102;BME280;26845;50.190;19.178;2023-04-21T15:23:12;98548.59;;;22.37;30.37
41102;BME280;26845;50.190;19.178;2023-04-21T15:26:18;98538.73;;;22.39;30.25
41102;BME280;26845;50.190;19.178;2023-04-21T15:29:24;98539.84;;;22.23;30.25
41102;BME280;26845;50.190;19.178;2023-04-21T15:32:30;98536.42;;;22.19;30.14
41102;BME280;26845;50.190;19.178;2023-04-21T15:35:36;98536.71;;;22.11;30.20
41102;BME280;26845;50.190;19.178;2023-04-21T15:38:41;98538.70;;;22.00;30.21
41102;BME280;26845;50.190;19.178;2023-04-21T15:41:47;98534.01;;;21.76;29.93
41102;BME280;26845;50.190;19.178;2023-04-21T15:44:53;98531.70;;;21.63;30.00
41102;BME280;26845;50.190;19.178;2023-04-21T15:47:59;98531.36;;;21.62;30.28
41102;BME280;26845;50.190;19.178;2023-04-21T15:51:05;98528.60;;;21.55;29.91
41102;BME280;26845;50.190;19.178;2023-04-21T15:54:11;98527.66;;;21.34;29.89
41102;BME280;26845;50.190;19.178;2023-04-21T15:57:16;98522.73;;;21.21;30.23
41102;BME280;26845;50.190;19.178;2023-04-21T16:00:22;98524.40;;;21.16;30.26
41102;BME280;26845;50.190;19.178;2023-04-21T16:03:28;98523.95;;;21.08;29.88
41102;BME280;26845;50.190;19.178;2023-04-21T16:06:35;98519.49;;;20.83;29.89
41102;BME280;26845;50.190;19.178;2023-04-21T16:09:41;98521.58;;;20.43;29.93
41102;BME280;26845;50.190;19.178;2023-04-21T16:12:47;98522.00;;;20.04;30.04
41102;BME280;26845;50.190;19.178;2023-04-21T16:15:52;98520.48;;;19.83;30.20
41102;BME280;26845;50.190;19.178;2023-04-21T16:18:58;98520.73;;;19.76;30.46
41102;BME280;26845;50.190;19.178;2023-04-21T16:21:42;98521.02;;;19.67;30.19